Towner, North Dakota
Current Conditions -  °F | °C
As of 10:15 PM on Sunday 23 Nov 2014 (Local Time) from KRUG Reporting Station
Overcast Overcast  
Wind Chill: -3°   Ceiling: 2000
Heat Index: 12°   Visibility: 10mi
Dew Point:   Wind: 14mph
Humidity: 79%   Direction: 320°NW
Pressure: 29.69"   Gusts: 20mph
Location:  48.35°N, 100.41°W
Report Text: KRUG 240415Z AUTO 32012G17KT 10SM OVC020 M11/M14 A2969 RMK AO2
Loading
Personal Weather Stations






























Interactive Weather Map New forecast layout! Learn more

10-Day Weather Forecast

Advertisements
Track Severe Weather on mobile